sensor_id;sensor_type;location;lat;lon;timestamp;P1;durP1;ratioP1;P2;durP2;ratioP2
50954;SDS011;36966;48.064;-0.792;2022-09-01T00:01:59;3.20;;;0.90;;
50954;SDS011;36966;48.064;-0.792;2022-09-01T00:04:24;4.38;;;0.90;;
50954;SDS011;36966;48.064;-0.792;2022-09-01T00:06:44;7.22;;;0.90;;
50954;SDS011;36966;48.064;-0.792;2022-09-01T00:09:06;4.00;;;1.20;;
50954;SDS011;36966;48.064;-0.792;2022-09-01T00:11:28;3.72;;;1.00;;
50954;SDS011;36966;48.064;-0.792;2022-09-01T00:13:51;2.70;;;1.00;;
50954;SDS011;36966;48.064;-0.792;2022-09-01T00:16:12;4.60;;;1.23;;
50954;SDS011;36966;48.064;-0.792;2022-09-01T00:18:32;5.32;;;1.27;;
50954;SDS011;36966;48.064;-0.792;2022-09-01T00:20:52;5.65;;;1.17;;
50954;SDS011;36966;48.064;-0.792;2022-09-01T00:23:16;9.50;;;1.05;;
50954;SDS011;36966;48.064;-0.792;2022-09-01T00:25:36;10.40;;;1.10;;
50954;SDS011;36966;48.064;-0.792;2022-09-01T00:27:55;2.47;;;1.00;;
50954;SDS011;36966;48.064;-0.792;2022-09-01T00:30:17;3.13;;;0.70;;
50954;SDS011;36966;48.064;-0.792;2022-09-01T00:32:38;3.17;;;0.88;;
50954;SDS011;36966;48.064;-0.792;2022-09-01T00:34:57;3.33;;;1.60;;
50954;SDS011;36966;48.064;-0.792;2022-09-01T00:37:17;5.45;;;0.75;;
50954;SDS011;36966;48.064;-0.792;2022-09-01T00:39:36;3.20;;;0.80;;
50954;SDS011;36966;48.064;-0.792;2022-09-01T00:41:55;1.88;;;0.88;;
50954;SDS011;36966;48.064;-0.792;2022-09-01T00:44:17;6.28;;;1.15;;
50954;SDS011;36966;48.064;-0.792;2022-09-01T00:46:47;2.17;;;0.70;;
50954;SDS011;36966;48.064;-0.792;2022-09-01T00:51:54;4.28;;;0.80;;
50954;SDS011;36966;48.064;-0.792;2022-09-01T00:54:19;4.13;;;0.98;;
50954;SDS011;36966;48.064;-0.792;2022-09-01T00:56:41;3.50;;;0.90;;
50954;SDS011;36966;48.064;-0.792;2022-09-01T00:59:01;8.25;;;1.02;;
50954;SDS011;36966;48.064;-0.792;2022-09-01T01:01:24;1.70;;;0.70;;
50954;SDS011;36966;48.064;-0.792;2022-09-01T01:03:43;5.05;;;0.85;;
50954;SDS011;36966;48.064;-0.792;2022-09-01T01:06:05;3.97;;;1.10;;
50954;SDS011;36966;48.064;-0.792;2022-09-01T01:08:27;2.55;;;0.70;;
50954;SDS011;36966;48.064;-0.792;2022-09-01T01:10:52;6.72;;;0.88;;
50954;SDS011;36966;48.064;-0.792;2022-09-01T01:13:12;3.08;;;0.77;;
50954;SDS011;36966;48.064;-0.792;2022-09-01T01:15:33;4.85;;;0.95;;
50954;SDS011;36966;48.064;-0.792;2022-09-01T01:17:54;5.55;;;0.90;;
50954;SDS011;36966;48.064;-0.792;2022-09-01T01:20:14;3.28;;;0.90;;
50954;SDS011;36966;48.064;-0.792;2022-09-01T01:25:43;4.18;;;0.82;;
50954;SDS011;36966;48.064;-0.792;2022-09-01T01:28:18;5.55;;;1.05;;
50954;SDS011;36966;48.064;-0.792;2022-09-01T01:30:40;4.10;;;0.77;;
50954;SDS011;36966;48.064;-0.792;2022-09-01T01:33:22;3.63;;;0.70;;
50954;SDS011;36966;48.064;-0.792;2022-09-01T01:35:43;4.75;;;0.85;;
50954;SDS011;36966;48.064;-0.792;2022-09-01T01:38:03;4.53;;;1.27;;
50954;SDS011;36966;48.064;-0.792;2022-09-01T01:40:25;2.85;;;0.60;;
50954;SDS011;36966;48.064;-0.792;2022-09-01T01:42:48;4.75;;;1.30;;
50954;SDS011;36966;48.064;-0.792;2022-09-01T01:45:20;4.43;;;1.27;;
50954;SDS011;36966;48.064;-0.792;2022-09-01T01:47:42;5.38;;;0.73;;
50954;SDS011;36966;48.064;-0.792;2022-09-01T01:50:09;6.97;;;1.10;;
50954;SDS011;36966;48.064;-0.792;2022-09-01T01:52:29;7.65;;;1.00;;
50954;SDS011;36966;48.064;-0.792;2022-09-01T01:54:49;2.55;;;0.85;;
50954;SDS011;36966;48.064;-0.792;2022-09-01T01:57:09;4.07;;;0.88;;
50954;SDS011;36966;48.064;-0.792;2022-09-01T01:59:29;4.80;;;1.05;;
50954;SDS011;36966;48.064;-0.792;2022-09-01T02:01:48;3.05;;;0.98;;
50954;SDS011;36966;48.064;-0.792;2022-09-01T02:04:09;8.02;;;0.90;;
50954;SDS011;36966;48.064;-0.792;2022-09-01T02:06:31;5.13;;;0.93;;
50954;SDS011;36966;48.064;-0.792;2022-09-01T02:08:51;10.15;;;0.98;;
50954;SDS011;36966;48.064;-0.792;2022-09-01T02:11:15;2.00;;;0.80;;
50954;SDS011;36966;48.064;-0.792;2022-09-01T02:13:35;5.57;;;0.90;;
50954;SDS011;36966;48.064;-0.792;2022-09-01T02:15:55;4.43;;;0.80;;
50954;SDS011;36966;48.064;-0.792;2022-09-01T02:18:18;11.30;;;0.93;;
50954;SDS011;36966;48.064;-0.792;2022-09-01T02:20:40;3.83;;;0.80;;
50954;SDS011;36966;48.064;-0.792;2022-09-01T02:23:00;1.83;;;0.60;;
50954;SDS011;36966;48.064;-0.792;2022-09-01T02:25:26;7.80;;;0.68;;
50954;SDS011;36966;48.064;-0.792;2022-09-01T02:27:47;2.47;;;0.75;;
50954;SDS011;36966;48.064;-0.792;2022-09-01T02:30:12;6.68;;;0.88;;
50954;SDS011;36966;48.064;-0.792;2022-09-01T02:32:32;3.63;;;0.95;;
50954;SDS011;36966;48.064;-0.792;2022-09-01T02:34:51;2.15;;;0.60;;
50954;SDS011;36966;48.064;-0.792;2022-09-01T02:37:11;4.07;;;0.98;;
50954;SDS011;36966;48.064;-0.792;2022-09-01T02:39:31;4.07;;;0.98;;
50954;SDS011;36966;48.064;-0.792;2022-09-01T02:41:50;3.40;;;0.77;;
50954;SDS011;36966;48.064;-0.792;2022-09-01T02:44:11;2.20;;;0.77;;
50954;SDS011;36966;48.064;-0.792;2022-09-01T02:46:32;4.22;;;1.50;;
50954;SDS011;36966;48.064;-0.792;2022-09-01T02:48:52;3.20;;;1.38;;
50954;SDS011;36966;48.064;-0.792;2022-09-01T02:51:13;3.53;;;0.80;;
50954;SDS011;36966;48.064;-0.792;2022-09-01T02:53:34;9.48;;;0.95;;
50954;SDS011;36966;48.064;-0.792;2022-09-01T02:55:55;3.72;;;0.85;;
50954;SDS011;36966;48.064;-0.792;2022-09-01T02:58:16;4.00;;;0.90;;
50954;SDS011;36966;48.064;-0.792;2022-09-01T03:00:37;2.72;;;0.85;;
50954;SDS011;36966;48.064;-0.792;2022-09-01T03:02:58;3.22;;;0.70;;
50954;SDS011;36966;48.064;-0.792;2022-09-01T03:05:19;4.15;;;0.88;;
50954;SDS011;36966;48.064;-0.792;2022-09-01T03:07:42;3.47;;;0.80;;
50954;SDS011;36966;48.064;-0.792;2022-09-01T03:10:02;3.80;;;0.70;;
50954;SDS011;36966;48.064;-0.792;2022-09-01T03:12:27;4.68;;;0.85;;
50954;SDS011;36966;48.064;-0.792;2022-09-01T03:14:46;2.78;;;0.95;;
50954;SDS011;36966;48.064;-0.792;2022-09-01T03:17:05;5.80;;;1.13;;
50954;SDS011;36966;48.064;-0.792;2022-09-01T03:19:24;4.97;;;1.15;;
50954;SDS011;36966;48.064;-0.792;2022-09-01T03:21:44;8.27;;;0.90;;
50954;SDS011;36966;48.064;-0.792;2022-09-01T03:24:04;4.88;;;1.17;;
50954;SDS011;36966;48.064;-0.792;2022-09-01T03:26:23;4.05;;;1.08;;
50954;SDS011;36966;48.064;-0.792;2022-09-01T03:28:43;4.55;;;0.90;;
50954;SDS011;36966;48.064;-0.792;2022-09-01T03:31:03;3.20;;;0.80;;
50954;SDS011;36966;48.064;-0.792;2022-09-01T03:33:23;2.63;;;0.77;;
50954;SDS011;36966;48.064;-0.792;2022-09-01T03:35:44;4.95;;;0.63;;
50954;SDS011;36966;48.064;-0.792;2022-09-01T03:38:03;3.53;;;0.68;;
50954;SDS011;36966;48.064;-0.792;2022-09-01T03:40:24;4.72;;;0.93;;
50954;SDS011;36966;48.064;-0.792;2022-09-01T03:42:50;6.13;;;1.23;;
50954;SDS011;36966;48.064;-0.792;2022-09-01T03:45:10;3.60;;;1.02;;
50954;SDS011;36966;48.064;-0.792;2022-09-01T03:47:34;3.73;;;0.80;;
50954;SDS011;36966;48.064;-0.792;2022-09-01T03:49:57;5.30;;;0.80;;
50954;SDS011;36966;48.064;-0.792;2022-09-01T03:52:17;7.38;;;1.08;;
50954;SDS011;36966;48.064;-0.792;2022-09-01T03:54:36;5.60;;;1.00;;
50954;SDS011;36966;48.064;-0.792;2022-09-01T03:56:55;8.20;;;0.98;;
50954;SDS011;36966;48.064;-0.792;2022-09-01T03:59:17;7.30;;;0.80;;
50954;SDS011;36966;48.064;-0.792;2022-09-01T04:01:36;5.18;;;0.88;;
50954;SDS011;36966;48.064;-0.792;2022-09-01T04:03:59;2.08;;;0.63;;
50954;SDS011;36966;48.064;-0.792;2022-09-01T04:06:18;3.92;;;0.68;;
50954;SDS011;36966;48.064;-0.792;2022-09-01T04:08:41;6.68;;;0.70;;
50954;SDS011;36966;48.064;-0.792;2022-09-01T04:11:03;3.38;;;1.13;;
50954;SDS011;36966;48.064;-0.792;2022-09-01T04:13:29;8.50;;;0.80;;
50954;SDS011;36966;48.064;-0.792;2022-09-01T04:15:51;8.75;;;0.88;;
50954;SDS011;36966;48.064;-0.792;2022-09-01T04:18:11;7.88;;;1.10;;
50954;SDS011;36966;48.064;-0.792;2022-09-01T04:20:40;4.00;;;1.45;;
50954;SDS011;36966;48.064;-0.792;2022-09-01T04:23:07;6.70;;;1.38;;
50954;SDS011;36966;48.064;-0.792;2022-09-01T04:25:29;8.18;;;1.08;;
50954;SDS011;36966;48.064;-0.792;2022-09-01T04:27:51;2.03;;;0.63;;
50954;SDS011;36966;48.064;-0.792;2022-09-01T04:30:13;3.53;;;0.95;;
50954;SDS011;36966;48.064;-0.792;2022-09-01T04:32:32;4.93;;;0.70;;
50954;SDS011;36966;48.064;-0.792;2022-09-01T04:34:53;5.38;;;0.75;;
50954;SDS011;36966;48.064;-0.792;2022-09-01T04:37:14;3.88;;;1.00;;
50954;SDS011;36966;48.064;-0.792;2022-09-01T04:39:36;5.80;;;1.52;;
50954;SDS011;36966;48.064;-0.792;2022-09-01T04:41:56;4.97;;;0.90;;
50954;SDS011;36966;48.064;-0.792;2022-09-01T04:44:16;6.65;;;1.02;;
50954;SDS011;36966;48.064;-0.792;2022-09-01T04:46:37;7.32;;;0.90;;
50954;SDS011;36966;48.064;-0.792;2022-09-01T04:49:00;2.40;;;0.60;;
50954;SDS011;36966;48.064;-0.792;2022-09-01T04:51:25;4.82;;;0.98;;
50954;SDS011;36966;48.064;-0.792;2022-09-01T04:53:45;6.50;;;1.50;;
50954;SDS011;36966;48.064;-0.792;2022-09-01T04:56:06;6.15;;;0.82;;
50954;SDS011;36966;48.064;-0.792;2022-09-01T05:00:50;7.22;;;1.38;;
50954;SDS011;36966;48.064;-0.792;2022-09-01T05:03:10;3.08;;;0.73;;
50954;SDS011;36966;48.064;-0.792;2022-09-01T05:05:39;5.30;;;1.60;;
50954;SDS011;36966;48.064;-0.792;2022-09-01T05:08:01;5.20;;;1.10;;
50954;SDS011;36966;48.064;-0.792;2022-09-01T05:10:21;8.57;;;1.42;;
50954;SDS011;36966;48.064;-0.792;2022-09-01T05:12:41;5.68;;;1.08;;
50954;SDS011;36966;48.064;-0.792;2022-09-01T05:15:02;6.72;;;1.50;;
50954;SDS011;36966;48.064;-0.792;2022-09-01T05:17:23;3.58;;;1.25;;
50954;SDS011;36966;48.064;-0.792;2022-09-01T05:19:47;5.00;;;0.73;;
50954;SDS011;36966;48.064;-0.792;2022-09-01T05:22:09;6.30;;;0.90;;
50954;SDS011;36966;48.064;-0.792;2022-09-01T05:24:28;4.10;;;1.00;;
50954;SDS011;36966;48.064;-0.792;2022-09-01T05:26:49;3.60;;;0.85;;
50954;SDS011;36966;48.064;-0.792;2022-09-01T05:29:08;3.13;;;0.73;;
50954;SDS011;36966;48.064;-0.792;2022-09-01T05:31:32;4.63;;;1.02;;
50954;SDS011;36966;48.064;-0.792;2022-09-01T05:33:55;12.77;;;1.17;;
50954;SDS011;36966;48.064;-0.792;2022-09-01T05:36:18;7.35;;;2.00;;
50954;SDS011;36966;48.064;-0.792;2022-09-01T05:38:40;6.13;;;1.38;;
50954;SDS011;36966;48.064;-0.792;2022-09-01T05:41:00;4.50;;;1.13;;
50954;SDS011;36966;48.064;-0.792;2022-09-01T05:43:24;2.97;;;0.93;;
50954;SDS011;36966;48.064;-0.792;2022-09-01T05:45:45;10.40;;;0.73;;
50954;SDS011;36966;48.064;-0.792;2022-09-01T05:48:05;4.65;;;0.98;;
50954;SDS011;36966;48.064;-0.792;2022-09-01T05:50:27;4.72;;;1.00;;
50954;SDS011;36966;48.064;-0.792;2022-09-01T05:52:46;4.07;;;1.10;;
50954;SDS011;36966;48.064;-0.792;2022-09-01T05:55:06;5.18;;;1.23;;
50954;SDS011;36966;48.064;-0.792;2022-09-01T05:57:26;2.97;;;0.90;;
50954;SDS011;36966;48.064;-0.792;2022-09-01T05:59:46;10.93;;;1.15;;
50954;SDS011;36966;48.064;-0.792;2022-09-01T06:02:10;4.93;;;1.35;;
50954;SDS011;36966;48.064;-0.792;2022-09-01T06:04:30;10.05;;;1.98;;
50954;SDS011;36966;48.064;-0.792;2022-09-01T06:06:49;5.90;;;1.42;;
50954;SDS011;36966;48.064;-0.792;2022-09-01T06:09:11;3.13;;;0.80;;
50954;SDS011;36966;48.064;-0.792;2022-09-01T06:11:31;9.18;;;1.40;;
50954;SDS011;36966;48.064;-0.792;2022-09-01T06:13:51;4.05;;;1.20;;
50954;SDS011;36966;48.064;-0.792;2022-09-01T06:16:14;9.80;;;1.63;;
50954;SDS011;36966;48.064;-0.792;2022-09-01T06:18:34;4.65;;;1.08;;
50954;SDS011;36966;48.064;-0.792;2022-09-01T06:20:54;6.53;;;0.90;;
50954;SDS011;36966;48.064;-0.792;2022-09-01T06:23:14;5.65;;;1.30;;
50954;SDS011;36966;48.064;-0.792;2022-09-01T06:25:35;10.00;;;1.60;;
50954;SDS011;36966;48.064;-0.792;2022-09-01T06:27:55;6.78;;;1.40;;
50954;SDS011;36966;48.064;-0.792;2022-09-01T06:30:15;7.78;;;1.30;;
50954;SDS011;36966;48.064;-0.792;2022-09-01T06:32:38;6.25;;;1.45;;
50954;SDS011;36966;48.064;-0.792;2022-09-01T06:34:58;4.80;;;1.02;;
50954;SDS011;36966;48.064;-0.792;2022-09-01T06:37:19;4.90;;;1.52;;
50954;SDS011;36966;48.064;-0.792;2022-09-01T06:39:39;17.90;;;1.55;;
50954;SDS011;36966;48.064;-0.792;2022-09-01T06:41:59;5.30;;;1.92;;
50954;SDS011;36966;48.064;-0.792;2022-09-01T06:44:20;5.45;;;1.30;;
50954;SDS011;36966;48.064;-0.792;2022-09-01T06:46:42;7.70;;;1.48;;
50954;SDS011;36966;48.064;-0.792;2022-09-01T06:49:01;12.88;;;1.30;;
50954;SDS011;36966;48.064;-0.792;2022-09-01T06:51:21;6.97;;;1.63;;
50954;SDS011;36966;48.064;-0.792;2022-09-01T06:53:42;7.43;;;1.30;;
50954;SDS011;36966;48.064;-0.792;2022-09-01T06:56:03;7.10;;;1.17;;
50954;SDS011;36966;48.064;-0.792;2022-09-01T06:58:22;4.30;;;1.63;;
50954;SDS011;36966;48.064;-0.792;2022-09-01T07:00:43;6.38;;;1.75;;
50954;SDS011;36966;48.064;-0.792;2022-09-01T07:03:02;6.93;;;1.27;;
50954;SDS011;36966;48.064;-0.792;2022-09-01T07:05:26;5.15;;;1.67;;
50954;SDS011;36966;48.064;-0.792;2022-09-01T07:07:46;6.10;;;1.30;;
50954;SDS011;36966;48.064;-0.792;2022-09-01T07:10:12;9.70;;;1.50;;
50954;SDS011;36966;48.064;-0.792;2022-09-01T07:12:32;6.75;;;1.60;;
50954;SDS011;36966;48.064;-0.792;2022-09-01T07:14:53;14.52;;;2.20;;
50954;SDS011;36966;48.064;-0.792;2022-09-01T07:17:13;13.93;;;1.83;;
50954;SDS011;36966;48.064;-0.792;2022-09-01T07:19:33;3.80;;;1.40;;
50954;SDS011;36966;48.064;-0.792;2022-09-01T07:21:53;2.47;;;1.33;;
50954;SDS011;36966;48.064;-0.792;2022-09-01T07:24:13;10.70;;;2.13;;
50954;SDS011;36966;48.064;-0.792;2022-09-01T07:26:36;8.98;;;2.17;;
50954;SDS011;36966;48.064;-0.792;2022-09-01T07:28:56;4.80;;;1.27;;
50954;SDS011;36966;48.064;-0.792;2022-09-01T07:31:16;5.07;;;1.52;;
50954;SDS011;36966;48.064;-0.792;2022-09-01T07:33:40;8.27;;;1.52;;
50954;SDS011;36966;48.064;-0.792;2022-09-01T07:36:01;5.15;;;1.60;;
50954;SDS011;36966;48.064;-0.792;2022-09-01T07:38:22;6.40;;;2.15;;
50954;SDS011;36966;48.064;-0.792;2022-09-01T07:40:42;7.47;;;2.30;;
50954;SDS011;36966;48.064;-0.792;2022-09-01T07:43:02;6.07;;;1.88;;
50954;SDS011;36966;48.064;-0.792;2022-09-01T07:45:25;6.20;;;1.88;;
50954;SDS011;36966;48.064;-0.792;2022-09-01T07:47:45;6.30;;;1.70;;
50954;SDS011;36966;48.064;-0.792;2022-09-01T07:50:05;4.57;;;2.00;;
50954;SDS011;36966;48.064;-0.792;2022-09-01T07:52:26;3.35;;;1.67;;
50954;SDS011;36966;48.064;-0.792;2022-09-01T07:54:45;8.45;;;1.95;;
50954;SDS011;36966;48.064;-0.792;2022-09-01T07:57:05;4.88;;;1.77;;
50954;SDS011;36966;48.064;-0.792;2022-09-01T07:59:24;7.30;;;2.00;;
50954;SDS011;36966;48.064;-0.792;2022-09-01T08:01:47;5.90;;;1.65;;
50954;SDS011;36966;48.064;-0.792;2022-09-01T08:04:07;9.77;;;3.10;;
50954;SDS011;36966;48.064;-0.792;2022-09-01T08:06:27;3.92;;;1.65;;
50954;SDS011;36966;48.064;-0.792;2022-09-01T08:08:48;3.65;;;1.33;;
50954;SDS011;36966;48.064;-0.792;2022-09-01T08:11:08;8.07;;;2.13;;
50954;SDS011;36966;48.064;-0.792;2022-09-01T08:13:27;7.18;;;1.60;;
50954;SDS011;36966;48.064;-0.792;2022-09-01T08:15:46;4.72;;;2.08;;
50954;SDS011;36966;48.064;-0.792;2022-09-01T08:18:06;7.35;;;1.95;;
50954;SDS011;36966;48.064;-0.792;2022-09-01T08:20:26;7.57;;;2.22;;
50954;SDS011;36966;48.064;-0.792;2022-09-01T08:22:46;3.35;;;2.13;;
50954;SDS011;36966;48.064;-0.792;2022-09-01T08:25:06;5.18;;;2.13;;
50954;SDS011;36966;48.064;-0.792;2022-09-01T08:27:27;11.50;;;2.22;;
50954;SDS011;36966;48.064;-0.792;2022-09-01T08:29:46;4.85;;;1.70;;
50954;SDS011;36966;48.064;-0.792;2022-09-01T08:32:06;9.07;;;2.78;;
50954;SDS011;36966;48.064;-0.792;2022-09-01T08:34:25;4.28;;;2.47;;
50954;SDS011;36966;48.064;-0.792;2022-09-01T08:36:44;4.57;;;2.25;;
50954;SDS011;36966;48.064;-0.792;2022-09-01T08:39:04;6.10;;;2.85;;
50954;SDS011;36966;48.064;-0.792;2022-09-01T08:47:06;8.68;;;2.97;;
50954;SDS011;36966;48.064;-0.792;2022-09-01T08:49:28;4.38;;;2.22;;
50954;SDS011;36966;48.064;-0.792;2022-09-01T08:56:53;3.53;;;2.13;;
50954;SDS011;36966;48.064;-0.792;2022-09-01T08:59:19;4.15;;;2.25;;
50954;SDS011;36966;48.064;-0.792;2022-09-01T09:01:52;3.55;;;1.95;;
50954;SDS011;36966;48.064;-0.792;2022-09-01T09:07:12;6.65;;;2.53;;
50954;SDS011;36966;48.064;-0.792;2022-09-01T09:17:28;6.93;;;3.08;;
50954;SDS011;36966;48.064;-0.792;2022-09-01T09:19:53;7.97;;;2.60;;
50954;SDS011;36966;48.064;-0.792;2022-09-01T09:22:16;13.82;;;2.25;;
50954;SDS011;36966;48.064;-0.792;2022-09-01T09:24:41;6.85;;;2.20;;
50954;SDS011;36966;48.064;-0.792;2022-09-01T09:27:08;4.28;;;2.30;;
50954;SDS011;36966;48.064;-0.792;2022-09-01T09:29:27;6.25;;;2.00;;
50954;SDS011;36966;48.064;-0.792;2022-09-01T09:31:47;20.25;;;3.08;;
50954;SDS011;36966;48.064;-0.792;2022-09-01T09:36:36;7.22;;;1.90;;
50954;SDS011;36966;48.064;-0.792;2022-09-01T09:39:06;3.50;;;2.20;;
50954;SDS011;36966;48.064;-0.792;2022-09-01T09:41:27;6.03;;;2.10;;
50954;SDS011;36966;48.064;-0.792;2022-09-01T09:49:14;8.65;;;2.25;;
50954;SDS011;36966;48.064;-0.792;2022-09-01T09:51:34;4.15;;;1.98;;
50954;SDS011;36966;48.064;-0.792;2022-09-01T09:54:08;2.75;;;2.00;;
50954;SDS011;36966;48.064;-0.792;2022-09-01T09:58:49;4.63;;;2.60;;
50954;SDS011;36966;48.064;-0.792;2022-09-01T10:01:29;7.60;;;2.13;;
50954;SDS011;36966;48.064;-0.792;2022-09-01T10:03:50;8.88;;;2.53;;
50954;SDS011;36966;48.064;-0.792;2022-09-01T10:06:13;5.70;;;2.45;;
50954;SDS011;36966;48.064;-0.792;2022-09-01T10:08:56;9.65;;;2.50;;
50954;SDS011;36966;48.064;-0.792;2022-09-01T10:14:16;4.85;;;2.30;;
50954;SDS011;36966;48.064;-0.792;2022-09-01T10:16:40;5.63;;;1.95;;
50954;SDS011;36966;48.064;-0.792;2022-09-01T10:19:01;4.40;;;1.92;;
50954;SDS011;36966;48.064;-0.792;2022-09-01T10:21:36;8.52;;;2.78;;
50954;SDS011;36966;48.064;-0.792;2022-09-01T10:23:58;7.88;;;2.65;;
50954;SDS011;36966;48.064;-0.792;2022-09-01T10:26:25;8.02;;;3.00;;
50954;SDS011;36966;48.064;-0.792;2022-09-01T10:28:54;5.65;;;2.38;;
50954;SDS011;36966;48.064;-0.792;2022-09-01T10:31:18;6.68;;;2.90;;
50954;SDS011;36966;48.064;-0.792;2022-09-01T10:33:39;5.18;;;2.95;;
50954;SDS011;36966;48.064;-0.792;2022-09-01T10:35:59;5.15;;;2.15;;
50954;SDS011;36966;48.064;-0.792;2022-09-01T10:38:20;7.03;;;2.55;;
50954;SDS011;36966;48.064;-0.792;2022-09-01T10:40:47;8.15;;;3.55;;
50954;SDS011;36966;48.064;-0.792;2022-09-01T10:46:52;6.45;;;3.00;;
50954;SDS011;36966;48.064;-0.792;2022-09-01T10:48:47;4.85;;;2.42;;
50954;SDS011;36966;48.064;-0.792;2022-09-01T10:56:15;7.85;;;2.72;;
50954;SDS011;36966;48.064;-0.792;2022-09-01T11:09:19;6.68;;;2.53;;
50954;SDS011;36966;48.064;-0.792;2022-09-01T11:11:46;3.42;;;2.45;;
50954;SDS011;36966;48.064;-0.792;2022-09-01T11:14:26;4.15;;;2.65;;
50954;SDS011;36966;48.064;-0.792;2022-09-01T11:19:39;4.55;;;2.30;;
50954;SDS011;36966;48.064;-0.792;2022-09-01T11:22:05;4.65;;;2.97;;
50954;SDS011;36966;48.064;-0.792;2022-09-01T11:27:02;10.57;;;2.80;;
50954;SDS011;36966;48.064;-0.792;2022-09-01T11:32:14;9.80;;;2.47;;
50954;SDS011;36966;48.064;-0.792;2022-09-01T11:34:39;3.53;;;2.33;;
50954;SDS011;36966;48.064;-0.792;2022-09-01T11:37:00;6.75;;;2.00;;
50954;SDS011;36966;48.064;-0.792;2022-09-01T11:39:27;7.45;;;2.88;;
50954;SDS011;36966;48.064;-0.792;2022-09-01T11:41:52;3.83;;;2.08;;
50954;SDS011;36966;48.064;-0.792;2022-09-01T11:44:42;5.55;;;2.60;;
50954;SDS011;36966;48.064;-0.792;2022-09-01T11:47:11;5.78;;;1.90;;
50954;SDS011;36966;48.064;-0.792;2022-09-01T11:49:54;7.15;;;2.65;;
50954;SDS011;36966;48.064;-0.792;2022-09-01T11:52:18;6.60;;;2.00;;
50954;SDS011;36966;48.064;-0.792;2022-09-01T11:54:41;11.65;;;2.72;;
50954;SDS011;36966;48.064;-0.792;2022-09-01T11:57:15;3.30;;;2.30;;
50954;SDS011;36966;48.064;-0.792;2022-09-01T11:59:46;4.15;;;2.20;;
50954;SDS011;36966;48.064;-0.792;2022-09-01T12:02:05;5.25;;;2.25;;
50954;SDS011;36966;48.064;-0.792;2022-09-01T12:04:29;5.10;;;2.38;;
50954;SDS011;36966;48.064;-0.792;2022-09-01T12:06:51;5.22;;;2.78;;
50954;SDS011;36966;48.064;-0.792;2022-09-01T12:09:21;4.15;;;2.50;;
50954;SDS011;36966;48.064;-0.792;2022-09-01T12:11:48;7.68;;;3.13;;
50954;SDS011;36966;48.064;-0.792;2022-09-01T12:14:09;10.60;;;2.83;;
50954;SDS011;36966;48.064;-0.792;2022-09-01T12:16:30;6.25;;;2.88;;
50954;SDS011;36966;48.064;-0.792;2022-09-01T12:18:53;9.85;;;2.92;;
50954;SDS011;36966;48.064;-0.792;2022-09-01T12:21:32;7.28;;;3.72;;
50954;SDS011;36966;48.064;-0.792;2022-09-01T12:26:35;5.05;;;2.83;;
50954;SDS011;36966;48.064;-0.792;2022-09-01T12:28:57;4.85;;;2.33;;
50954;SDS011;36966;48.064;-0.792;2022-09-01T12:31:18;5.32;;;3.10;;
50954;SDS011;36966;48.064;-0.792;2022-09-01T12:33:41;6.85;;;2.70;;
50954;SDS011;36966;48.064;-0.792;2022-09-01T12:38:44;3.45;;;2.28;;
50954;SDS011;36966;48.064;-0.792;2022-09-01T12:41:20;4.88;;;2.50;;
50954;SDS011;36966;48.064;-0.792;2022-09-01T12:43:52;3.72;;;2.50;;
50954;SDS011;36966;48.064;-0.792;2022-09-01T12:46:11;5.70;;;2.13;;
50954;SDS011;36966;48.064;-0.792;2022-09-01T12:48:38;8.45;;;2.33;;
50954;SDS011;36966;48.064;-0.792;2022-09-01T12:51:00;3.53;;;2.00;;
50954;SDS011;36966;48.064;-0.792;2022-09-01T12:53:23;5.70;;;2.53;;
50954;SDS011;36966;48.064;-0.792;2022-09-01T12:58:33;6.47;;;2.15;;
50954;SDS011;36966;48.064;-0.792;2022-09-01T13:00:57;4.35;;;1.70;;
50954;SDS011;36966;48.064;-0.792;2022-09-01T13:03:18;4.32;;;1.92;;
50954;SDS011;36966;48.064;-0.792;2022-09-01T13:05:42;4.47;;;2.25;;
50954;SDS011;36966;48.064;-0.792;2022-09-01T13:08:08;8.23;;;2.13;;
50954;SDS011;36966;48.064;-0.792;2022-09-01T13:10:31;5.72;;;2.33;;
50954;SDS011;36966;48.064;-0.792;2022-09-01T13:12:55;6.55;;;2.28;;
50954;SDS011;36966;48.064;-0.792;2022-09-01T13:15:15;4.13;;;1.40;;
50954;SDS011;36966;48.064;-0.792;2022-09-01T13:17:35;3.65;;;1.55;;
50954;SDS011;36966;48.064;-0.792;2022-09-01T13:19:55;1.80;;;1.45;;
50954;SDS011;36966;48.064;-0.792;2022-09-01T13:22:14;2.03;;;1.42;;
50954;SDS011;36966;48.064;-0.792;2022-09-01T13:24:33;4.05;;;1.83;;
50954;SDS011;36966;48.064;-0.792;2022-09-01T13:26:52;7.40;;;1.38;;
50954;SDS011;36966;48.064;-0.792;2022-09-01T13:29:14;2.60;;;1.67;;
50954;SDS011;36966;48.064;-0.792;2022-09-01T13:31:35;5.95;;;1.83;;
50954;SDS011;36966;48.064;-0.792;2022-09-01T13:33:54;7.63;;;2.47;;
50954;SDS011;36966;48.064;-0.792;2022-09-01T13:36:13;4.38;;;2.05;;
50954;SDS011;36966;48.064;-0.792;2022-09-01T13:38:32;4.15;;;2.05;;
50954;SDS011;36966;48.064;-0.792;2022-09-01T13:40:52;4.22;;;1.80;;
50954;SDS011;36966;48.064;-0.792;2022-09-01T13:43:15;5.45;;;1.92;;
50954;SDS011;36966;48.064;-0.792;2022-09-01T13:45:37;4.05;;;1.88;;
50954;SDS011;36966;48.064;-0.792;2022-09-01T13:47:58;11.10;;;2.03;;
50954;SDS011;36966;48.064;-0.792;2022-09-01T13:50:18;3.38;;;1.50;;
50954;SDS011;36966;48.064;-0.792;2022-09-01T13:52:41;4.60;;;2.17;;
50954;SDS011;36966;48.064;-0.792;2022-09-01T13:55:04;3.97;;;1.75;;
50954;SDS011;36966;48.064;-0.792;2022-09-01T13:57:24;6.20;;;2.45;;
50954;SDS011;36966;48.064;-0.792;2022-09-01T13:59:44;7.47;;;2.75;;
50954;SDS011;36966;48.064;-0.792;2022-09-01T14:02:03;2.88;;;1.85;;
50954;SDS011;36966;48.064;-0.792;2022-09-01T14:04:23;3.92;;;2.47;;
50954;SDS011;36966;48.064;-0.792;2022-09-01T14:06:42;4.72;;;1.90;;
50954;SDS011;36966;48.064;-0.792;2022-09-01T14:09:01;3.33;;;1.90;;
50954;SDS011;36966;48.064;-0.792;2022-09-01T14:11:21;3.90;;;1.38;;
50954;SDS011;36966;48.064;-0.792;2022-09-01T14:13:40;3.65;;;2.42;;
50954;SDS011;36966;48.064;-0.792;2022-09-01T14:15:59;2.97;;;1.45;;
50954;SDS011;36966;48.064;-0.792;2022-09-01T14:18:19;3.00;;;1.70;;
50954;SDS011;36966;48.064;-0.792;2022-09-01T14:20:40;8.77;;;2.13;;
50954;SDS011;36966;48.064;-0.792;2022-09-01T14:23:02;3.20;;;1.92;;
50954;SDS011;36966;48.064;-0.792;2022-09-01T14:25:22;7.07;;;2.03;;
50954;SDS011;36966;48.064;-0.792;2022-09-01T14:27:42;7.10;;;1.65;;
50954;SDS011;36966;48.064;-0.792;2022-09-01T14:30:03;3.10;;;2.00;;
50954;SDS011;36966;48.064;-0.792;2022-09-01T14:32:25;3.00;;;2.00;;
50954;SDS011;36966;48.064;-0.792;2022-09-01T14:34:45;5.10;;;1.80;;
50954;SDS011;36966;48.064;-0.792;2022-09-01T14:37:04;4.55;;;2.53;;
50954;SDS011;36966;48.064;-0.792;2022-09-01T14:39:25;3.85;;;1.65;;
50954;SDS011;36966;48.064;-0.792;2022-09-01T14:41:44;5.32;;;1.77;;
50954;SDS011;36966;48.064;-0.792;2022-09-01T14:44:03;4.32;;;1.98;;
50954;SDS011;36966;48.064;-0.792;2022-09-01T14:46:24;4.88;;;2.05;;
50954;SDS011;36966;48.064;-0.792;2022-09-01T14:48:43;4.72;;;2.03;;
50954;SDS011;36966;48.064;-0.792;2022-09-01T14:51:05;5.85;;;1.73;;
50954;SDS011;36966;48.064;-0.792;2022-09-01T14:53:26;4.68;;;2.20;;
50954;SDS011;36966;48.064;-0.792;2022-09-01T14:55:48;2.03;;;1.73;;
50954;SDS011;36966;48.064;-0.792;2022-09-01T14:58:07;3.72;;;1.60;;
50954;SDS011;36966;48.064;-0.792;2022-09-01T15:00:26;3.17;;;2.00;;
50954;SDS011;36966;48.064;-0.792;2022-09-01T15:02:47;3.45;;;2.22;;
50954;SDS011;36966;48.064;-0.792;2022-09-01T15:05:06;5.00;;;2.10;;
50954;SDS011;36966;48.064;-0.792;2022-09-01T15:07:26;4.93;;;1.95;;
50954;SDS011;36966;48.064;-0.792;2022-09-01T15:09:45;6.15;;;2.85;;
50954;SDS011;36966;48.064;-0.792;2022-09-01T15:12:04;3.97;;;2.50;;
50954;SDS011;36966;48.064;-0.792;2022-09-01T15:14:24;7.78;;;1.95;;
50954;SDS011;36966;48.064;-0.792;2022-09-01T15:16:44;4.78;;;2.08;;
50954;SDS011;36966;48.064;-0.792;2022-09-01T15:19:05;4.93;;;2.08;;
50954;SDS011;36966;48.064;-0.792;2022-09-01T15:21:29;3.10;;;1.95;;